MSC Lisbon — A8LL9 — position and weather

sailwx.info

Track history (hours):
 
Tides and Currents Weather Stations Pressure Air Temp Water Temp Dewpoint Dewpoint Depression Visibility Wind Speed Wind Dir Waves Ship Positions

MSC Lisbon

Last reported at 2015-May-30 03:31 UTC. Time now 2015-May-30 04:24 UTC.
Position N 40°41' W 074°09'.

Length 336.7 m; beam 45.6 m; draft 15.3 m.

Type: Ship (hazmat cat A). MMSI: 636091276.

Date/timePositionNaut miles runAvg speedWind from/ knotsBaromVisibWave heightAir tempDewpointWater temp
2015-May-30 03:31N 40°41' W 074°09'0 0.0
2015-May-30 02:31N 40°41' W 074°09'0 0.0
2015-May-30 01:31N 40°41' W 074°09'0 0.0
2015-May-30 00:31N 40°41' W 074°09'0 0.0
2015-May-29 23:31N 40°41' W 074°09'0 0.0
2015-May-29 22:31N 40°41' W 074°09'0 0.0
2015-May-29 21:31N 40°41' W 074°09'0 0.0
2015-May-29 20:31N 40°41' W 074°09'0 0.0
2015-May-29 19:31N 40°41' W 074°09'0 0.0
2015-May-29 18:34N 40°41' W 074°09'0 0.0
2015-May-29 17:33N 40°41' W 074°09'0 0.0
2015-May-29 16:33N 40°41' W 074°09'0 0.0
2015-May-29 15:33N 40°41' W 074°09'0 0.0
2015-May-29 14:33N 40°41' W 074°09'0 0.0
2015-May-29 13:33N 40°41' W 074°09'0 0.0
2015-May-29 12:33N 40°41' W 074°09'0 0.0
2015-May-29 11:30N 40°41' W 074°09'0 0.0
2015-May-29 10:33N 40°41' W 074°09'1 1.5
2015-May-29 09:34N 40°40' W 074°09'4 3.6
2015-May-29 08:34N 40°39' W 074°04'1111.4
2015-May-29 07:33N 40°30' W 073°55'1211.9
2015-May-29 06:33N 40°23' W 073°42'1716.7
2015-May-29 05:33N 40°13' W 073°24'1616.2
2015-May-29 04:33N 40°04' W 073°07'1716.7
2015-May-29 03:33N 39°56' W 072°48'1717.6
2015-May-29 02:33N 39°46' W 072°30'1817.6
2015-May-29 01:33N 39°33' W 072°14'1817.6
2015-May-29 00:33N 39°19' W 071°59'1717.3
2015-May-28 23:33N 39°07' W 071°44'1717.5
2015-May-28 22:33N 38°55' W 071°27'1818.1
2015-May-28 21:33N 38°44' W 071°08'2217.7
2015-May-28 20:19N 38°32' W 070°45'5 6.3
2015-May-28 19:33N 38°30' W 070°40'2418.0
2015-May-28 18:14N 38°15' W 070°16'417.7
2015-May-28 18:00N 38°12' W 070°12'14316.9 220 / 151026.010.8 0.523.517.526.1
2015-May-28 09:31N 38°26' W 067°10'2020.6
2015-May-28 08:33N 38°32' W 066°46'5220.5
2015-May-28 06:00N 38°48' W 065°42'   140 / 151028.0 5.4 19.015.515.8
2015-May-26 00:00N 41°54' W 041°54'97120.2 120 / 27 10.8 1.019.814.418.4
2015-May-24 00:00N 40°24' W 020°30'24220.2 350 / 151031.5 5.4 16.015.217.3
2015-May-23 12:00N 39°24' W 015°24'24520.4 010 / 291026.5 5.4 3.017.014.616.6
2015-May-23 00:00N 38°12' W 010°24'614.0 350 / 301019.0 5.4 15.014.016.4
2015-May-22 23:34N 38°14' W 010°17'2020.0
2015-May-22 22:33N 38°08' W 009°53'2020.2
2015-May-22 21:33N 38°01' W 009°28'2020.3
2015-May-22 20:33N 37°55' W 009°04'1010.4
2015-May-22 19:33N 37°56' W 008°51'0 0.0
2015-May-22 18:31N 37°56' W 008°51'0 0.0
2015-May-22 17:28N 37°56' W 008°51'0 0.0
2015-May-22 16:31N 37°56' W 008°51'0 0.0
2015-May-22 15:31N 37°56' W 008°51'0 0.0
2015-May-22 14:28N 37°56' W 008°51'0 0.0
2015-May-22 13:31N 37°56' W 008°51'0 0.0
2015-May-22 12:31N 37°56' W 008°51'0 0.0
2015-May-22 11:31N 37°56' W 008°51'0 0.0
2015-May-22 10:31N 37°56' W 008°51'0 0.0
2015-May-22 09:31N 37°56' W 008°51'0 0.3
2015-May-22 08:33N 37°56' W 008°51'7 6.6
2015-May-22 07:33N 37°49' W 008°53'1616.0
2015-May-22 06:33N 37°35' W 009°02'1818.4
2015-May-22 05:33N 37°18' W 009°11'1918.8
2015-May-22 04:33N 37°01' W 009°21'1817.7
2015-May-22 03:33N 36°46' W 009°10'1919.3
2015-May-22 02:33N 36°40' W 008°47'2019.6
2015-May-22 01:33N 36°33' W 008°24'2019.5
2015-May-22 00:33N 36°27' W 008°01'1119.2
2015-May-22 00:00N 36°24' W 007°48'11918.5 120 / 81020.0 5.4 20.013.519.4
2015-May-21 17:33N 36°01' W 005°23'10719.2
2015-May-21 12:00N 36°12' W 003°12'1518.5 120 / 151023.5 5.4 1.022.014.018.8
2015-May-21 11:12N 36°19' W 002°56'1319.4
2015-May-21 10:33N 36°21' W 002°41'1919.4
2015-May-21 09:33N 36°24' W 002°17'3919.2
2015-May-21 07:32N 36°49' W 001°39'6419.7
2015-May-21 04:19N 37°30' W 000°39'1519.7
2015-May-21 03:34N 37°42' W 000°27'2019.9
2015-May-21 02:33N 37°59' W 000°14'8814.6
2015-May-20 20:33N 39°26' W 000°19'0 0.3
2015-May-20 19:33N 39°26' W 000°20'0 0.0
2015-May-20 18:33N 39°26' W 000°20'0 0.0
2015-May-20 17:33N 39°26' W 000°20'0 0.0
2015-May-20 16:26N 39°26' W 000°20'0 0.0
2015-May-20 15:23N 39°26' W 000°20'0 0.0
2015-May-20 14:32N 39°26' W 000°20'0 0.0
2015-May-20 13:32N 39°26' W 000°20'0 0.0
2015-May-20 12:32N 39°26' W 000°20'0 0.0
2015-May-20 11:26N 39°26' W 000°20'0 0.0
2015-May-20 10:32N 39°26' W 000°20'0 0.0
2015-May-20 09:32N 39°26' W 000°20'0 0.3
2015-May-20 08:32N 39°26' W 000°20'0 0.0
2015-May-20 07:26N 39°26' W 000°20'0 0.0
2015-May-20 06:32N 39°26' W 000°20'0 0.0
2015-May-20 05:14N 39°26' W 000°20'  
Track history (hours):
 
Tides and Currents Weather Stations Pressure Air Temp Water Temp Dewpoint Dewpoint Depression Visibility Wind Speed Wind Dir Waves Ship Positions

MSC Lisbon

Last reported at 2015-May-30 03:31 UTC. Time now 2015-May-30 04:24 UTC.
Position N 40°41' W 074°09'.

Length 336.7 m; beam 45.6 m; draft 15.3 m.

Type: Ship (hazmat cat A). MMSI: 636091276.

Date/timePositionNaut miles runAvg speedWind from/ knotsBaromVisibWave heightAir tempDewpointWater temp
2015-May-30 03:31N 40°41' W 074°09'0 0.0
2015-May-30 02:31N 40°41' W 074°09'0 0.0
2015-May-30 01:31N 40°41' W 074°09'0 0.0
2015-May-30 00:31N 40°41' W 074°09'0 0.0
2015-May-29 23:31N 40°41' W 074°09'0 0.0
2015-May-29 22:31N 40°41' W 074°09'0 0.0
2015-May-29 21:31N 40°41' W 074°09'0 0.0
2015-May-29 20:31N 40°41' W 074°09'0 0.0
2015-May-29 19:31N 40°41' W 074°09'0 0.0
2015-May-29 18:34N 40°41' W 074°09'0 0.0
2015-May-29 17:33N 40°41' W 074°09'0 0.0
2015-May-29 16:33N 40°41' W 074°09'0 0.0
2015-May-29 15:33N 40°41' W 074°09'0 0.0
2015-May-29 14:33N 40°41' W 074°09'0 0.0
2015-May-29 13:33N 40°41' W 074°09'0 0.0
2015-May-29 12:33N 40°41' W 074°09'0 0.0
2015-May-29 11:30N 40°41' W 074°09'0 0.0
2015-May-29 10:33N 40°41' W 074°09'1 1.5
2015-May-29 09:34N 40°40' W 074°09'4 3.6
2015-May-29 08:34N 40°39' W 074°04'1111.4
2015-May-29 07:33N 40°30' W 073°55'1211.9
2015-May-29 06:33N 40°23' W 073°42'1716.7
2015-May-29 05:33N 40°13' W 073°24'1616.2
2015-May-29 04:33N 40°04' W 073°07'1716.7
2015-May-29 03:33N 39°56' W 072°48'1717.6
2015-May-29 02:33N 39°46' W 072°30'1817.6
2015-May-29 01:33N 39°33' W 072°14'1817.6
2015-May-29 00:33N 39°19' W 071°59'1717.3
2015-May-28 23:33N 39°07' W 071°44'1717.5
2015-May-28 22:33N 38°55' W 071°27'1818.1
2015-May-28 21:33N 38°44' W 071°08'2217.7
2015-May-28 20:19N 38°32' W 070°45'5 6.3
2015-May-28 19:33N 38°30' W 070°40'2418.0
2015-May-28 18:14N 38°15' W 070°16'417.7
2015-May-28 18:00N 38°12' W 070°12'14316.9 220 / 151026.010.8 0.523.517.526.1
2015-May-28 09:31N 38°26' W 067°10'2020.6
2015-May-28 08:33N 38°32' W 066°46'5220.5
2015-May-28 06:00N 38°48' W 065°42'   140 / 151028.0 5.4 19.015.515.8
2015-May-26 00:00N 41°54' W 041°54'97120.2 120 / 27 10.8 1.019.814.418.4
2015-May-24 00:00N 40°24' W 020°30'24220.2 350 / 151031.5 5.4 16.015.217.3
2015-May-23 12:00N 39°24' W 015°24'24520.4 010 / 291026.5 5.4 3.017.014.616.6
2015-May-23 00:00N 38°12' W 010°24'614.0 350 / 301019.0 5.4 15.014.016.4
2015-May-22 23:34N 38°14' W 010°17'2020.0
2015-May-22 22:33N 38°08' W 009°53'2020.2
2015-May-22 21:33N 38°01' W 009°28'2020.3
2015-May-22 20:33N 37°55' W 009°04'1010.4
2015-May-22 19:33N 37°56' W 008°51'0 0.0
2015-May-22 18:31N 37°56' W 008°51'0 0.0
2015-May-22 17:28N 37°56' W 008°51'0 0.0
2015-May-22 16:31N 37°56' W 008°51'0 0.0
2015-May-22 15:31N 37°56' W 008°51'0 0.0
2015-May-22 14:28N 37°56' W 008°51'0 0.0
2015-May-22 13:31N 37°56' W 008°51'0 0.0
2015-May-22 12:31N 37°56' W 008°51'0 0.0
2015-May-22 11:31N 37°56' W 008°51'0 0.0
2015-May-22 10:31N 37°56' W 008°51'0 0.0
2015-May-22 09:31N 37°56' W 008°51'0 0.3
2015-May-22 08:33N 37°56' W 008°51'7 6.6
2015-May-22 07:33N 37°49' W 008°53'1616.0
2015-May-22 06:33N 37°35' W 009°02'1818.4
2015-May-22 05:33N 37°18' W 009°11'1918.8
2015-May-22 04:33N 37°01' W 009°21'1817.7
2015-May-22 03:33N 36°46' W 009°10'1919.3
2015-May-22 02:33N 36°40' W 008°47'2019.6
2015-May-22 01:33N 36°33' W 008°24'2019.5
2015-May-22 00:33N 36°27' W 008°01'1119.2
2015-May-22 00:00N 36°24' W 007°48'11918.5 120 / 81020.0 5.4 20.013.519.4
2015-May-21 17:33N 36°01' W 005°23'10719.2
2015-May-21 12:00N 36°12' W 003°12'1518.5 120 / 151023.5 5.4 1.022.014.018.8
2015-May-21 11:12N 36°19' W 002°56'1319.4
2015-May-21 10:33N 36°21' W 002°41'1919.4
2015-May-21 09:33N 36°24' W 002°17'3919.2
2015-May-21 07:32N 36°49' W 001°39'6419.7
2015-May-21 04:19N 37°30' W 000°39'1519.7
2015-May-21 03:34N 37°42' W 000°27'2019.9
2015-May-21 02:33N 37°59' W 000°14'8814.6
2015-May-20 20:33N 39°26' W 000°19'0 0.3
2015-May-20 19:33N 39°26' W 000°20'0 0.0
2015-May-20 18:33N 39°26' W 000°20'0 0.0
2015-May-20 17:33N 39°26' W 000°20'0 0.0
2015-May-20 16:26N 39°26' W 000°20'0 0.0
2015-May-20 15:23N 39°26' W 000°20'0 0.0
2015-May-20 14:32N 39°26' W 000°20'0 0.0
2015-May-20 13:32N 39°26' W 000°20'0 0.0
2015-May-20 12:32N 39°26' W 000°20'0 0.0
2015-May-20 11:26N 39°26' W 000°20'0 0.0
2015-May-20 10:32N 39°26' W 000°20'0 0.0
2015-May-20 09:32N 39°26' W 000°20'0 0.3
2015-May-20 08:32N 39°26' W 000°20'0 0.0
2015-May-20 07:26N 39°26' W 000°20'0 0.0
2015-May-20 06:32N 39°26' W 000°20'0 0.0
2015-May-20 05:14N 39°26' W 000°20'  

Dump ship's entire track history